Time;durP1;ratioP1;P1;durP2;ratioP2;P2;SDS_P1;SDS_P2;PMS_P1;PMS_P2;Temp;Humidity;BMP_temperature;BMP_pressure;BME280_temperature;BME280_humidity;BME280_pressure;Samples;Min_cycle;Max_cycle;Signal;HPM_P1;HPM_P2
2022/03/13 00:01:22;;;;;;;58.50;28.20;;;;;;;;;;10253302;28;20077;-54
2022/03/13 00:06:28;;;;;;;18.70;14.35;;;;;;;;;;10253292;28;20048;-56
2022/03/13 00:11:27;;;;;;;12.27;8.77;;;;;;;;;;10252888;28;20079;-54
2022/03/13 00:16:29;;;;;;;12.90;10.02;;;;;;;;;;10254269;28;20056;-56
2022/03/13 00:21:27;;;;;;;21.88;13.05;;;;;;;;;;10252347;28;20037;-55
2022/03/13 00:26:26;;;;;;;25.48;15.40;;;;;;;;;;10251751;28;20093;-53
2022/03/13 00:31:24;;;;;;;34.38;20.25;;;;;;;;;;10252831;28;20076;-54
2022/03/13 00:36:24;;;;;;;38.47;20.77;;;;;;;;;;10253654;28;20056;-57
2022/03/13 00:41:23;;;;;;;18.75;12.75;;;;;;;;;;10252783;28;20029;-55
2022/03/13 00:46:21;;;;;;;17.77;11.50;;;;;;;;;;10252716;28;20073;-55
2022/03/13 00:51:19;;;;;;;15.20;10.25;;;;;;;;;;10253054;28;20076;-55
2022/03/13 00:56:19;;;;;;;20.23;11.70;;;;;;;;;;10252073;28;20082;-54
2022/03/13 01:01:17;;;;;;;14.65;9.50;;;;;;;;;;10253180;28;20080;-55
2022/03/13 01:06:16;;;;;;;14.43;10.15;;;;;;;;;;10250927;28;20049;-55
2022/03/13 01:11:16;;;;;;;16.50;12.77;;;;;;;;;;10251322;28;20072;-53
2022/03/13 01:16:17;;;;;;;11.75;9.35;;;;;;;;;;10251990;28;20517;-56
2022/03/13 01:21:15;;;;;;;10.80;8.75;;;;;;;;;;10250779;28;20075;-56
2022/03/13 01:26:36;;;;;;;11.73;8.88;;;;;;;;;;10256260;28;20080;-57
2022/03/13 01:31:36;;;;;;;11.48;9.23;;;;;;;;;;10259169;28;20073;-56
2022/03/13 01:36:35;;;;;;;15.55;10.13;;;;;;;;;;10258066;28;20080;-53
2022/03/13 01:41:35;;;;;;;13.07;9.30;;;;;;;;;;10258915;28;20467;-56
2022/03/13 01:46:33;;;;;;;14.65;10.60;;;;;;;;;;10257168;28;20057;-56
2022/03/13 01:51:34;;;;;;;53.55;32.70;;;;;;;;;;10257545;28;20076;-53
2022/03/13 01:56:35;;;;;;;46.13;29.92;;;;;;;;;;10257903;28;20832;-54
2022/03/13 02:01:33;;;;;;;21.17;15.68;;;;;;;;;;10257548;28;20071;-55
2022/03/13 02:06:33;;;;;;;12.85;10.63;;;;;;;;;;10257720;28;20052;-55
2022/03/13 02:11:36;;;;;;;10.68;9.43;;;;;;;;;;10256073;28;20145;-56
2022/03/13 02:16:34;;;;;;;11.15;9.00;;;;;;;;;;10256906;28;20103;-55
2022/03/13 02:21:44;;;;;;;18.10;13.77;;;;;;;;;;10254872;28;20148;-55
2022/03/13 02:26:44;;;;;;;14.45;11.18;;;;;;;;;;10255329;28;20081;-55
2022/03/13 02:31:43;;;;;;;96.45;49.45;;;;;;;;;;10257629;28;20077;-52
2022/03/13 02:36:55;;;;;;;124.13;64.45;;;;;;;;;;10256221;28;20510;-56
2022/03/13 02:41:55;;;;;;;109.68;60.60;;;;;;;;;;10255607;28;20072;-55
2022/03/13 02:46:57;;;;;;;106.40;59.33;;;;;;;;;;10255698;28;20088;-52
2022/03/13 02:51:56;;;;;;;46.13;31.25;;;;;;;;;;10254703;28;20075;-55
2022/03/13 02:56:56;;;;;;;37.38;24.05;;;;;;;;;;10256054;28;20045;-57
2022/03/13 03:01:54;;;;;;;47.50;31.15;;;;;;;;;;10255295;28;20037;-52
2022/03/13 03:06:59;;;;;;;20.40;15.40;;;;;;;;;;10256153;28;20065;-56
2022/03/13 03:12:00;;;;;;;13.90;11.20;;;;;;;;;;10255314;28;20122;-55
2022/03/13 03:16:59;;;;;;;14.30;11.35;;;;;;;;;;10255295;28;20072;-54
2022/03/13 03:21:57;;;;;;;15.80;11.18;;;;;;;;;;10255997;28;20072;-56
2022/03/13 03:26:55;;;;;;;26.55;17.92;;;;;;;;;;10254658;28;20072;-53
2022/03/13 03:31:55;;;;;;;24.67;16.17;;;;;;;;;;10254948;28;20053;-56
2022/03/13 03:36:55;;;;;;;12.60;9.95;;;;;;;;;;10255318;28;20084;-55
2022/03/13 03:41:54;;;;;;;15.27;12.65;;;;;;;;;;10254336;28;20034;-53
2022/03/13 03:46:52;;;;;;;17.90;10.52;;;;;;;;;;10254802;28;20087;-56
2022/03/13 03:51:52;;;;;;;16.02;11.32;;;;;;;;;;10253224;28;20080;-56
2022/03/13 03:56:50;;;;;;;18.05;13.38;;;;;;;;;;10255287;28;20521;-54
2022/03/13 04:01:49;;;;;;;16.65;12.27;;;;;;;;;;10253332;28;20075;-56
2022/03/13 04:06:48;;;;;;;20.52;14.70;;;;;;;;;;10253232;28;20494;-57
2022/03/13 04:11:47;;;;;;;26.88;18.33;;;;;;;;;;10255243;28;20046;-55
2022/03/13 04:16:46;;;;;;;32.65;21.25;;;;;;;;;;10252815;28;20076;-55
2022/03/13 04:21:45;;;;;;;24.02;16.95;;;;;;;;;;10254088;28;20088;-56
2022/03/13 04:26:44;;;;;;;19.67;14.85;;;;;;;;;;10253098;28;20041;-56
2022/03/13 04:31:46;;;;;;;23.83;16.60;;;;;;;;;;10253457;28;20065;-56
2022/03/13 04:36:46;;;;;;;27.17;17.67;;;;;;;;;;10252828;28;20064;-56
2022/03/13 04:41:45;;;;;;;17.60;10.95;;;;;;;;;;10253316;28;20034;-57
2022/03/13 04:46:44;;;;;;;11.55;10.27;;;;;;;;;;10252826;28;20068;-55
2022/03/13 04:51:43;;;;;;;11.02;9.35;;;;;;;;;;10252501;28;20084;-54
2022/03/13 04:56:41;;;;;;;13.48;10.40;;;;;;;;;;10249705;28;20538;-54
2022/03/13 05:01:39;;;;;;;10.70;9.45;;;;;;;;;;10257341;28;20045;-57
2022/03/13 05:06:45;;;;;;;12.82;10.10;;;;;;;;;;10260685;28;20063;-57
2022/03/13 05:11:43;;;;;;;18.50;10.43;;;;;;;;;;10260715;28;20042;-57
2022/03/13 05:16:41;;;;;;;50.70;28.52;;;;;;;;;;10261475;28;20083;-56
2022/03/13 05:21:41;;;;;;;267.50;121.22;;;;;;;;;;10259267;28;20049;-55
2022/03/13 05:26:41;;;;;;;126.72;68.15;;;;;;;;;;10258342;28;20065;-55
2022/03/13 05:31:40;;;;;;;45.08;32.53;;;;;;;;;;10259086;28;20068;-55
2022/03/13 05:36:45;;;;;;;48.13;29.57;;;;;;;;;;10258586;28;20510;-56
2022/03/13 05:41:45;;;;;;;34.72;22.38;;;;;;;;;;10256510;28;20087;-56
2022/03/13 05:46:43;;;;;;;21.80;16.75;;;;;;;;;;10256832;28;20056;-54
2022/03/13 05:51:43;;;;;;;15.88;12.82;;;;;;;;;;10257108;28;20457;-56
2022/03/13 05:56:45;;;;;;;21.15;18.85;;;;;;;;;;10257186;28;20069;-55
2022/03/13 06:01:44;;;;;;;24.13;21.63;;;;;;;;;;10256181;28;20066;-55
2022/03/13 06:06:43;;;;;;;22.38;16.60;;;;;;;;;;10256511;28;20037;-55
2022/03/13 06:11:41;;;;;;;15.55;12.60;;;;;;;;;;10255751;28;20037;-54
2022/03/13 06:16:41;;;;;;;36.05;29.20;;;;;;;;;;10257497;28;20064;-55
2022/03/13 06:21:41;;;;;;;19.60;14.63;;;;;;;;;;10255973;28;20069;-54
2022/03/13 06:26:39;;;;;;;31.63;19.65;;;;;;;;;;10258297;28;20095;-55
2022/03/13 06:31:37;;;;;;;44.25;28.08;;;;;;;;;;10256104;28;20045;-55
2022/03/13 06:36:39;;;;;;;63.38;36.30;;;;;;;;;;10255410;28;20068;-55
2022/03/13 06:41:38;;;;;;;33.42;20.65;;;;;;;;;;10253838;28;20080;-54
2022/03/13 06:46:36;;;;;;;28.05;19.80;;;;;;;;;;10253333;28;20057;-54
2022/03/13 06:51:35;;;;;;;13.25;10.55;;;;;;;;;;10255223;28;20069;-55
2022/03/13 06:56:35;;;;;;;33.45;20.23;;;;;;;;;;10248559;28;20475;-49
2022/03/13 07:01:34;;;;;;;32.75;25.00;;;;;;;;;;10235294;28;20124;-55
2022/03/13 07:06:33;;;;;;;33.00;20.00;;;;;;;;;;10253313;28;20071;-55
2022/03/13 07:11:35;;;;;;;28.63;20.25;;;;;;;;;;10254030;28;20049;-56
2022/03/13 07:16:38;;;;;;;20.15;16.63;;;;;;;;;;10251454;28;20073;-56
2022/03/13 07:21:37;;;;;;;20.98;13.55;;;;;;;;;;10249628;28;20085;-53
2022/03/13 07:26:36;;;;;;;18.52;11.63;;;;;;;;;;10251691;28;20100;-57
2022/03/13 07:31:35;;;;;;;18.58;13.85;;;;;;;;;;10253246;28;20080;-55
2022/03/13 07:36:34;;;;;;;14.68;11.32;;;;;;;;;;10252393;28;20085;-56
2022/03/13 07:41:33;;;;;;;18.98;13.50;;;;;;;;;;10252789;28;20068;-56
2022/03/13 07:46:32;;;;;;;37.45;20.10;;;;;;;;;;10248571;28;20073;-55
2022/03/13 07:51:33;;;;;;;17.83;12.90;;;;;;;;;;10251394;28;20103;-54
2022/03/13 07:56:32;;;;;;;11.43;9.05;;;;;;;;;;10251698;28;20575;-54
2022/03/13 08:01:31;;;;;;;22.30;16.02;;;;;;;;;;10255123;28;20082;-56
2022/03/13 08:06:32;;;;;;;20.98;15.13;;;;;;;;;;10253185;28;20551;-55
2022/03/13 08:11:32;;;;;;;39.70;22.77;;;;;;;;;;10250248;28;20374;-55
2022/03/13 08:16:30;;;;;;;12.48;10.35;;;;;;;;;;10252072;28;20079;-56
2022/03/13 08:21:29;;;;;;;16.95;13.52;;;;;;;;;;10252319;28;20446;-54
2022/03/13 08:26:30;;;;;;;13.98;9.93;;;;;;;;;;10251306;28;20042;-56
2022/03/13 08:31:28;;;;;;;16.00;10.27;;;;;;;;;;10252628;28;20080;-54
2022/03/13 08:36:27;;;;;;;31.13;20.75;;;;;;;;;;10259080;28;20095;-55
2022/03/13 08:41:25;;;;;;;27.20;19.00;;;;;;;;;;10261493;28;20080;-56
2022/03/13 08:46:25;;;;;;;20.10;16.20;;;;;;;;;;10260226;28;20070;-55
2022/03/13 08:51:24;;;;;;;11.40;10.10;;;;;;;;;;10258909;28;20052;-54
2022/03/13 08:56:22;;;;;;;12.27;10.40;;;;;;;;;;10257988;28;20095;-55
2022/03/13 09:01:22;;;;;;;14.68;11.13;;;;;;;;;;10259413;28;20080;-55
2022/03/13 09:06:22;;;;;;;15.02;12.32;;;;;;;;;;10259568;28;20501;-55
2022/03/13 09:11:21;;;;;;;25.17;15.77;;;;;;;;;;10260721;28;20456;-56
2022/03/13 09:16:20;;;;;;;16.05;12.15;;;;;;;;;;10259278;28;20072;-55
2022/03/13 09:21:18;;;;;;;18.85;15.70;;;;;;;;;;10259054;28;20080;-53
2022/03/13 09:26:17;;;;;;;16.90;11.65;;;;;;;;;;10258610;28;20041;-55
2022/03/13 09:31:16;;;;;;;12.30;9.88;;;;;;;;;;10257163;28;20053;-56
2022/03/13 09:36:17;;;;;;;12.20;9.10;;;;;;;;;;10258654;28;20414;-55
2022/03/13 09:41:16;;;;;;;18.27;11.90;;;;;;;;;;10259425;28;20084;-55
2022/03/13 09:46:16;;;;;;;18.42;12.57;;;;;;;;;;10257849;28;20045;-56
2022/03/13 09:51:15;;;;;;;15.80;11.43;;;;;;;;;;10259339;28;20041;-56
2022/03/13 09:56:13;;;;;;;13.63;9.93;;;;;;;;;;10258609;28;20071;-56
2022/03/13 10:01:12;;;;;;;21.85;13.65;;;;;;;;;;10258862;28;20057;-55
2022/03/13 10:06:13;;;;;;;115.10;57.22;;;;;;;;;;10259317;28;20490;-56
2022/03/13 10:11:11;;;;;;;38.70;23.92;;;;;;;;;;10258934;28;20084;-54
2022/03/13 10:16:15;;;;;;;25.10;15.48;;;;;;;;;;10259080;28;20080;-56
2022/03/13 10:21:16;;;;;;;34.60;20.05;;;;;;;;;;10257827;28;20069;-56
2022/03/13 10:26:16;;;;;;;45.38;27.95;;;;;;;;;;10258339;28;20087;-55
2022/03/13 10:31:17;;;;;;;15.88;10.77;;;;;;;;;;10257253;28;20033;-54
2022/03/13 10:36:31;;;;;;;69.63;51.78;;;;;;;;;;10256335;28;20073;-56
2022/03/13 10:41:42;;;;;;;23.75;17.17;;;;;;;;;;10255890;28;20064;-56
2022/03/13 10:46:42;;;;;;;18.17;11.77;;;;;;;;;;10254399;28;20091;-56
2022/03/13 10:51:45;;;;;;;27.33;20.92;;;;;;;;;;10254410;28;20064;-56
2022/03/13 10:56:47;;;;;;;26.88;14.30;;;;;;;;;;10254677;28;20068;-57
2022/03/13 11:01:45;;;;;;;36.58;23.67;;;;;;;;;;10253032;28;20069;-56
2022/03/13 11:06:45;;;;;;;26.65;18.77;;;;;;;;;;10248854;28;20087;-57
2022/03/13 11:11:44;;;;;;;44.60;24.70;;;;;;;;;;10249479;28;20072;-57
2022/03/13 11:16:42;;;;;;;31.40;21.02;;;;;;;;;;10249126;28;20481;-56
2022/03/13 11:21:40;;;;;;;42.28;23.27;;;;;;;;;;10254861;28;20068;-57
2022/03/13 11:26:41;;;;;;;13.00;11.38;;;;;;;;;;10256485;28;20077;-57
2022/03/13 11:31:43;;;;;;;14.20;10.07;;;;;;;;;;10255620;28;20088;-56
2022/03/13 11:36:43;;;;;;;23.98;15.90;;;;;;;;;;10255221;28;20113;-57
2022/03/13 11:41:43;;;;;;;20.80;12.48;;;;;;;;;;10254292;28;20065;-55
2022/03/13 11:46:44;;;;;;;24.90;16.30;;;;;;;;;;10255575;28;20429;-56
2022/03/13 11:51:45;;;;;;;12.10;8.77;;;;;;;;;;10254736;28;20077;-57
2022/03/13 11:56:48;;;;;;;10.15;8.38;;;;;;;;;;10254890;28;20148;-56
2022/03/13 12:01:48;;;;;;;40.53;27.10;;;;;;;;;;10254728;28;20068;-57
2022/03/13 12:06:48;;;;;;;27.45;12.38;;;;;;;;;;10255118;28;20072;-56
2022/03/13 12:11:50;;;;;;;13.93;11.40;;;;;;;;;;10253185;28;20444;-58
2022/03/13 12:17:05;;;;;;;12.80;9.80;;;;;;;;;;10253898;28;20071;-57
2022/03/13 12:22:05;;;;;;;14.18;8.85;;;;;;;;;;10252973;28;20467;-57
2022/03/13 12:27:05;;;;;;;31.48;13.02;;;;;;;;;;10255814;28;20053;-57
2022/03/13 12:32:10;;;;;;;13.18;9.30;;;;;;;;;;10253597;28;20064;-55
2022/03/13 12:37:09;;;;;;;13.07;9.32;;;;;;;;;;10253986;28;20475;-56
2022/03/13 12:42:09;;;;;;;16.30;11.70;;;;;;;;;;10253144;28;20087;-55
2022/03/13 12:47:08;;;;;;;32.67;19.13;;;;;;;;;;10252948;28;20081;-56
2022/03/13 12:52:13;;;;;;;17.90;12.13;;;;;;;;;;10253890;28;20045;-55
2022/03/13 12:57:12;;;;;;;18.48;12.65;;;;;;;;;;10252531;28;20451;-56
2022/03/13 13:02:14;;;;;;;21.20;13.52;;;;;;;;;;10253804;28;20065;-56
2022/03/13 13:07:14;;;;;;;12.77;11.32;;;;;;;;;;10252165;28;20076;-56
2022/03/13 13:12:17;;;;;;;24.05;12.30;;;;;;;;;;10253687;28;20065;-55
2022/03/13 13:17:17;;;;;;;15.90;11.40;;;;;;;;;;10251827;28;20071;-57
2022/03/13 13:22:16;;;;;;;26.98;16.13;;;;;;;;;;10258379;28;20514;-56
2022/03/13 13:27:27;;;;;;;33.20;21.50;;;;;;;;;;10259504;28;20068;-56
2022/03/13 13:32:26;;;;;;;46.38;30.83;;;;;;;;;;10259510;28;20076;-56
2022/03/13 13:37:24;;;;;;;17.80;12.27;;;;;;;;;;10260639;28;20121;-57
2022/03/13 13:42:24;;;;;;;13.95;10.07;;;;;;;;;;10258931;28;20041;-56
2022/03/13 13:47:24;;;;;;;31.92;22.48;;;;;;;;;;10258112;28;20057;-56
2022/03/13 13:52:28;;;;;;;34.97;19.10;;;;;;;;;;10258336;28;20143;-56
2022/03/13 13:57:28;;;;;;;31.53;20.10;;;;;;;;;;10258914;28;20084;-56
2022/03/13 14:02:27;;;;;;;20.45;12.00;;;;;;;;;;10260051;28;20076;-57
2022/03/13 14:07:26;;;;;;;21.60;10.13;;;;;;;;;;10258200;28;20041;-55
2022/03/13 14:12:24;;;;;;;22.23;12.68;;;;;;;;;;10257495;28;20033;-58
2022/03/13 14:17:23;;;;;;;17.80;9.32;;;;;;;;;;10256206;28;20080;-58
2022/03/13 14:22:33;;;;;;;28.08;14.23;;;;;;;;;;10257461;28;20402;-57
2022/03/13 14:27:31;;;;;;;69.68;43.53;;;;;;;;;;10257171;28;20446;-56
2022/03/13 14:32:31;;;;;;;39.67;25.73;;;;;;;;;;10258059;28;20065;-55
2022/03/13 14:37:29;;;;;;;50.28;32.30;;;;;;;;;;10256590;28;20068;-53
2022/03/13 14:42:48;;;;;;;41.25;25.40;;;;;;;;;;10253382;28;20080;-52
2022/03/13 14:47:47;;;;;;;24.92;17.45;;;;;;;;;;10255452;28;20088;-54
2022/03/13 14:53:06;;;;;;;30.95;23.17;;;;;;;;;;10257762;28;20151;-55
2022/03/13 14:58:04;;;;;;;19.58;12.30;;;;;;;;;;10256057;28;20064;-57
2022/03/13 15:03:05;;;;;;;31.67;19.10;;;;;;;;;;10256925;28;20076;-56
2022/03/13 15:08:03;;;;;;;25.33;21.30;;;;;;;;;;10256219;28;20037;-55
2022/03/13 15:13:01;;;;;;;37.03;26.85;;;;;;;;;;10256222;28;20045;-55
2022/03/13 15:18:00;;;;;;;59.65;36.75;;;;;;;;;;10256331;28;20072;-56
2022/03/13 15:23:00;;;;;;;54.70;38.45;;;;;;;;;;10255746;28;20053;-55
2022/03/13 15:27:58;;;;;;;61.47;36.72;;;;;;;;;;10256462;28;20041;-55
2022/03/13 15:32:57;;;;;;;80.47;50.00;;;;;;;;;;10254518;28;20145;-55
2022/03/13 15:37:55;;;;;;;65.88;39.95;;;;;;;;;;10254258;28;20071;-55
2022/03/13 15:42:55;;;;;;;48.20;34.67;;;;;;;;;;10252878;28;20065;-56
2022/03/13 15:47:58;;;;;;;48.88;38.00;;;;;;;;;;10253351;28;20099;-56
2022/03/13 15:52:56;;;;;;;35.83;21.60;;;;;;;;;;10254537;28;20052;-55
2022/03/13 15:57:56;;;;;;;61.05;39.40;;;;;;;;;;10255425;28;20069;-55
2022/03/13 16:02:54;;;;;;;57.20;33.28;;;;;;;;;;10253703;28;20490;-56
2022/03/13 16:07:53;;;;;;;45.60;24.95;;;;;;;;;;10254885;28;20041;-56
2022/03/13 16:12:51;;;;;;;53.65;29.05;;;;;;;;;;10254460;28;20040;-52
2022/03/13 16:17:51;;;;;;;39.80;22.88;;;;;;;;;;10253973;28;20470;-56
2022/03/13 16:22:49;;;;;;;40.97;21.13;;;;;;;;;;10254771;28;20068;-56
2022/03/13 16:27:53;;;;;;;26.27;16.02;;;;;;;;;;10253944;28;20064;-56
2022/03/13 16:32:52;;;;;;;23.95;16.27;;;;;;;;;;10253957;28;20073;-55
2022/03/13 16:37:51;;;;;;;34.50;21.35;;;;;;;;;;10253367;28;20463;-56
2022/03/13 16:42:49;;;;;;;37.22;21.25;;;;;;;;;;10253077;28;20075;-56
2022/03/13 16:47:48;;;;;;;34.75;21.75;;;;;;;;;;10246934;28;20131;-53
2022/03/13 16:52:48;;;;;;;42.00;25.38;;;;;;;;;;10255682;28;20065;-53
2022/03/13 16:57:46;;;;;;;43.78;27.42;;;;;;;;;;10260892;28;20072;-54
2022/03/13 17:02:44;;;;;;;32.58;22.85;;;;;;;;;;10259942;28;20467;-55
2022/03/13 17:07:43;;;;;;;28.65;17.05;;;;;;;;;;10258176;28;20076;-55
2022/03/13 17:12:43;;;;;;;34.13;22.38;;;;;;;;;;10259451;28;20507;-54
2022/03/13 17:17:41;;;;;;;32.60;22.70;;;;;;;;;;10259226;28;20092;-56
2022/03/13 17:22:40;;;;;;;30.92;19.00;;;;;;;;;;10258766;28;20077;-57
2022/03/13 17:27:38;;;;;;;31.20;20.73;;;;;;;;;;10255356;28;20065;-56
2022/03/13 17:32:37;;;;;;;32.83;20.85;;;;;;;;;;10251220;28;20494;-56
2022/03/13 17:37:37;;;;;;;118.30;70.93;;;;;;;;;;10252278;28;20581;-57
2022/03/13 17:42:35;;;;;;;31.85;23.40;;;;;;;;;;10256519;28;20533;-55
2022/03/13 17:47:33;;;;;;;32.67;20.42;;;;;;;;;;10260132;28;20077;-55
2022/03/13 17:52:33;;;;;;;23.90;16.77;;;;;;;;;;10262217;28;20065;-55
2022/03/13 17:57:31;;;;;;;21.90;16.60;;;;;;;;;;10263883;28;20069;-55
2022/03/13 18:02:30;;;;;;;28.38;19.23;;;;;;;;;;10259258;28;20485;-53
2022/03/13 18:07:28;;;;;;;35.00;22.98;;;;;;;;;;10256623;28;20080;-55
2022/03/13 18:12:28;;;;;;;26.30;17.40;;;;;;;;;;10259051;28;20069;-55
2022/03/13 18:17:26;;;;;;;22.13;17.20;;;;;;;;;;10257276;28;20045;-55
2022/03/13 18:22:25;;;;;;;33.80;20.73;;;;;;;;;;10256985;28;20044;-52
2022/03/13 18:27:23;;;;;;;32.95;19.00;;;;;;;;;;10256053;28;20128;-53
2022/03/13 18:32:23;;;;;;;29.38;19.45;;;;;;;;;;10257266;28;20076;-50
2022/03/13 18:37:22;;;;;;;50.03;31.85;;;;;;;;;;10253846;28;20072;-54
2022/03/13 18:42:21;;;;;;;22.45;16.77;;;;;;;;;;10237179;28;20053;-54
2022/03/13 18:47:19;;;;;;;18.65;14.98;;;;;;;;;;10237111;28;20482;-53
2022/03/13 18:52:19;;;;;;;24.27;17.65;;;;;;;;;;10237206;28;20069;-55
2022/03/13 18:57:17;;;;;;;25.60;15.82;;;;;;;;;;10249039;28;20064;-56
2022/03/13 19:02:16;;;;;;;40.60;25.77;;;;;;;;;;10236896;28;20076;-52
2022/03/13 19:07:15;;;;;;;28.30;17.85;;;;;;;;;;10236836;28;20045;-51
2022/03/13 19:12:19;;;;;;;22.13;15.10;;;;;;;;;;10240769;28;20084;-57
2022/03/13 19:17:18;;;;;;;23.13;17.38;;;;;;;;;;10237160;28;20057;-56
2022/03/13 19:22:18;;;;;;;38.05;24.15;;;;;;;;;;10236448;28;20069;-54
2022/03/13 19:27:16;;;;;;;42.63;25.60;;;;;;;;;;10243743;28;20073;-54
2022/03/13 19:32:16;;;;;;;25.58;15.13;;;;;;;;;;10248059;28;20061;-52
2022/03/13 19:37:16;;;;;;;29.75;18.70;;;;;;;;;;10249517;28;20045;-55
2022/03/13 19:42:17;;;;;;;32.95;21.05;;;;;;;;;;10235424;28;20069;-56
2022/03/13 19:47:17;;;;;;;38.97;25.20;;;;;;;;;;10235366;28;20064;-53
2022/03/13 19:52:16;;;;;;;29.13;19.80;;;;;;;;;;10235237;28;20076;-53
2022/03/13 19:57:15;;;;;;;32.22;21.45;;;;;;;;;;10235395;28;20049;-53
2022/03/13 20:02:13;;;;;;;24.55;17.85;;;;;;;;;;10234656;28;20506;-55
2022/03/13 20:07:13;;;;;;;22.20;16.52;;;;;;;;;;10234441;28;20846;-56
2022/03/13 20:12:12;;;;;;;32.13;23.17;;;;;;;;;;10234305;28;20049;-55
2022/03/13 20:17:11;;;;;;;34.03;21.13;;;;;;;;;;10234636;28;20422;-56
2022/03/13 20:22:12;;;;;;;20.52;14.57;;;;;;;;;;10234540;28;20467;-56
2022/03/13 20:27:12;;;;;;;25.92;18.35;;;;;;;;;;10234880;28;20083;-55
2022/03/13 20:32:11;;;;;;;21.55;13.40;;;;;;;;;;10239406;28;20087;-55
2022/03/13 20:37:10;;;;;;;29.35;16.92;;;;;;;;;;10242400;28;20072;-55
2022/03/13 20:42:09;;;;;;;23.45;17.73;;;;;;;;;;10242394;28;20096;-55
2022/03/13 20:47:08;;;;;;;21.15;14.98;;;;;;;;;;10241990;28;20092;-54
2022/03/13 20:52:07;;;;;;;23.27;16.25;;;;;;;;;;10241416;28;20056;-53
2022/03/13 20:57:06;;;;;;;20.42;15.10;;;;;;;;;;10253590;28;20559;-51
2022/03/13 21:02:04;;;;;;;20.27;14.52;;;;;;;;;;10241102;28;20068;-54
2022/03/13 21:07:05;;;;;;;31.40;26.55;;;;;;;;;;10241596;28;20077;-54
2022/03/13 21:12:04;;;;;;;16.65;13.07;;;;;;;;;;10240795;28;20079;-54
2022/03/13 21:17:02;;;;;;;23.98;16.23;;;;;;;;;;10240441;28;20089;-54
2022/03/13 21:22:01;;;;;;;33.90;22.15;;;;;;;;;;10240558;28;20069;-53
2022/03/13 21:27:01;;;;;;;50.63;30.25;;;;;;;;;;10240859;28;20088;-55
2022/03/13 21:31:59;;;;;;;23.65;15.82;;;;;;;;;;10239983;28;20120;-55
2022/03/13 21:36:57;;;;;;;21.15;14.68;;;;;;;;;;10240170;28;20041;-55
2022/03/13 21:41:55;;;;;;;24.38;15.88;;;;;;;;;;10240104;28;20084;-51
2022/03/13 21:46:55;;;;;;;18.25;12.32;;;;;;;;;;10239785;28;20079;-53
2022/03/13 21:51:54;;;;;;;27.08;19.48;;;;;;;;;;10239618;28;20085;-53
2022/03/13 21:56:52;;;;;;;22.65;14.88;;;;;;;;;;10239432;28;20049;-51
2022/03/13 22:01:51;;;;;;;29.48;19.38;;;;;;;;;;10239676;28;20076;-54
2022/03/13 22:06:51;;;;;;;29.48;19.17;;;;;;;;;;10263663;28;20068;-54
2022/03/13 22:11:49;;;;;;;28.52;18.95;;;;;;;;;;10275470;28;20079;-53
2022/03/13 22:16:48;;;;;;;21.70;15.60;;;;;;;;;;10278543;28;20084;-53
2022/03/13 22:21:46;;;;;;;46.40;29.35;;;;;;;;;;10276709;28;20084;-52
2022/03/13 22:26:47;;;;;;;22.20;15.80;;;;;;;;;;10248622;28;20049;-54
2022/03/13 22:31:45;;;;;;;29.27;16.25;;;;;;;;;;10238052;28;20065;-52
2022/03/13 22:36:43;;;;;;;28.33;18.15;;;;;;;;;;10251448;28;20426;-53
2022/03/13 22:41:41;;;;;;;38.75;23.20;;;;;;;;;;10264453;28;20079;-55
2022/03/13 22:46:41;;;;;;;42.47;22.98;;;;;;;;;;10256565;28;20452;-53
2022/03/13 22:51:40;;;;;;;46.00;23.63;;;;;;;;;;10254453;28;20065;-52
2022/03/13 22:56:47;;;;;;;46.53;26.20;;;;;;;;;;10264329;28;20087;-55
2022/03/13 23:01:47;;;;;;;42.47;22.25;;;;;;;;;;10270133;28;20069;-54
2022/03/13 23:06:46;;;;;;;23.55;15.75;;;;;;;;;;10274081;28;20079;-53
2022/03/13 23:11:44;;;;;;;21.73;15.27;;;;;;;;;;10276975;28;20048;-52
2022/03/13 23:16:45;;;;;;;20.38;15.23;;;;;;;;;;10276823;28;20041;-54
2022/03/13 23:21:45;;;;;;;21.75;14.32;;;;;;;;;;10276367;28;20084;-55
2022/03/13 23:26:44;;;;;;;18.08;14.07;;;;;;;;;;10276841;28;20053;-56
2022/03/13 23:31:43;;;;;;;29.45;18.10;;;;;;;;;;10276195;28;20045;-55
2022/03/13 23:36:41;;;;;;;27.25;14.80;;;;;;;;;;10276044;28;20040;-55
2022/03/13 23:41:41;;;;;;;23.35;16.30;;;;;;;;;;10275870;28;20497;-55
2022/03/13 23:46:42;;;;;;;26.20;17.33;;;;;;;;;;10275398;28;20446;-55
2022/03/13 23:51:40;;;;;;;18.48;13.40;;;;;;;;;;10275924;28;20075;-54
2022/03/13 23:56:41;;;;;;;16.35;11.63;;;;;;;;;;10275832;28;20083;-55
